USRR 270530Z 05005MPS 350V100 9999 SCT024CB 00/M05 Q1017 R07/250055 TEMPO 1000 SHSN RMK QFE758
QNH:(hPa/inHg/mmHg)1017 / 30.03 / 763
QFE:(hPa/inHg/mmHg)1010 / 29.82 / 757
Temperature0
Dew Point-5
Visibility1000
WeatherShowers Snow
Cloud CoverSCT (2400);
Transition Height700 m./2500 ft.
Transition LevelFL40
SQUAWK